createdAt,value
2018-11-04T00:00:44.225Z,91.77
2018-11-04T00:03:48.362Z,91.68
2018-11-04T00:06:52.245Z,91.87
2018-11-04T00:09:56.317Z,91.98
2018-11-04T00:13:00.237Z,91.67
2018-11-04T00:16:04.287Z,92.09
2018-11-04T00:19:08.213Z,92.14
2018-11-04T00:22:12.581Z,92.12
2018-11-04T00:25:16.811Z,92.11
2018-11-04T00:28:20.678Z,92.20
2018-11-04T00:31:25.090Z,91.98
2018-11-04T00:34:28.982Z,91.98
2018-11-04T00:37:32.864Z,92.26
2018-11-04T00:40:37.294Z,91.60
2018-11-04T00:43:41.153Z,91.34
2018-11-04T00:46:45.052Z,91.44
2018-11-04T00:49:49.134Z,91.45
2018-11-04T00:52:53.021Z,90.97
2018-11-04T00:55:57.234Z,91.46
2018-11-04T00:59:01.122Z,91.73
2018-11-04T01:02:05.281Z,91.68
2018-11-04T01:05:10.010Z,91.51
2018-11-04T01:08:13.889Z,91.57
2018-11-04T01:11:17.774Z,91.66
2018-11-04T01:14:21.680Z,91.23
2018-11-04T01:17:25.754Z,91.27
2018-11-04T01:20:29.978Z,91.25
2018-11-04T01:23:33.862Z,91.25
2018-11-04T01:26:37.741Z,91.27
2018-11-04T01:29:41.634Z,90.92
2018-11-04T01:32:45.833Z,91.07
2018-11-04T01:35:49.714Z,91.23
2018-11-04T01:38:53.606Z,91.19
2018-11-04T01:41:57.678Z,91.18
2018-11-04T01:45:01.569Z,91.22
2018-11-04T01:51:15.854Z,91.09
2018-11-04T01:54:19.729Z,90.84
2018-11-04T01:57:23.631Z,91.03
2018-11-04T02:00:27.514Z,91.03
2018-11-04T02:03:31.402Z,91.17
2018-11-04T02:06:35.524Z,90.79
2018-11-04T02:09:39.399Z,91.39
2018-11-04T02:12:43.304Z,91.62
2018-11-04T02:15:47.185Z,91.68
2018-11-04T02:18:51.090Z,91.70
2018-11-04T02:21:54.974Z,91.58
2018-11-04T02:24:59.002Z,91.72
2018-11-04T02:28:02.865Z,92.67
2018-11-04T02:31:06.809Z,91.97
2018-11-04T02:34:10.689Z,91.74
2018-11-04T02:37:14.576Z,91.96
2018-11-04T02:40:18.450Z,92.06
2018-11-04T02:43:22.665Z,92.12
2018-11-04T02:46:26.550Z,92.00
2018-11-04T02:49:30.448Z,92.18
2018-11-04T02:52:34.439Z,92.30
2018-11-04T02:55:38.351Z,92.36
2018-11-04T02:58:42.237Z,91.99
2018-11-04T03:01:46.298Z,92.11
2018-11-04T03:04:50.165Z,92.57
2018-11-04T03:07:54.050Z,92.14
2018-11-04T03:10:57.941Z,92.17
2018-11-04T03:14:01.826Z,92.16
2018-11-04T03:17:06.210Z,92.00
2018-11-04T03:20:10.097Z,92.48
2018-11-04T03:23:13.986Z,92.13
2018-11-04T03:26:17.863Z,92.41
2018-11-04T03:29:22.094Z,92.36
2018-11-04T03:32:26.016Z,92.16
2018-11-04T03:35:29.898Z,92.06
2018-11-04T03:38:33.790Z,92.12
2018-11-04T03:41:37.783Z,92.30
2018-11-04T03:44:41.858Z,92.41
2018-11-04T03:47:45.751Z,92.27
2018-11-04T03:50:49.978Z,92.19
2018-11-04T03:53:53.862Z,92.11
2018-11-04T03:56:58.069Z,91.82
2018-11-04T04:00:01.941Z,91.84
2018-11-04T04:03:05.824Z,92.00
2018-11-04T04:06:09.702Z,91.81
2018-11-04T04:09:13.585Z,92.06
2018-11-04T04:12:17.475Z,91.91
2018-11-04T04:15:21.361Z,92.03
2018-11-04T04:18:25.782Z,92.42
2018-11-04T04:21:29.670Z,92.40
2018-11-04T04:24:33.554Z,92.34
2018-11-04T04:27:37.427Z,92.52
2018-11-04T04:30:41.305Z,92.52
2018-11-04T04:33:45.186Z,92.53
2018-11-04T04:36:49.058Z,92.62
2018-11-04T04:39:52.928Z,92.76
2018-11-04T04:42:56.818Z,92.57
2018-11-04T04:46:00.714Z,92.71
2018-11-04T04:49:04.677Z,92.48
2018-11-04T04:52:08.549Z,92.39
2018-11-04T04:55:12.774Z,92.70
2018-11-04T04:58:16.662Z,92.61
2018-11-04T05:01:20.535Z,92.71
2018-11-04T05:04:24.414Z,92.82
2018-11-04T05:07:28.296Z,92.67
2018-11-04T05:10:32.169Z,92.43
2018-11-04T05:13:36.049Z,92.61
2018-11-04T05:16:39.966Z,92.00
2018-11-04T05:19:43.845Z,91.35
2018-11-04T05:22:48.057Z,91.35
2018-11-04T05:25:51.939Z,91.24
2018-11-04T05:28:55.817Z,91.10
2018-11-04T05:31:59.701Z,90.68
2018-11-04T05:35:03.639Z,90.58
2018-11-04T05:38:07.558Z,90.84
2018-11-04T05:41:11.923Z,90.72
2018-11-04T05:44:15.805Z,90.85
2018-11-04T05:47:19.688Z,90.98
2018-11-04T05:50:23.884Z,90.74
2018-11-04T05:53:27.874Z,90.60
2018-11-04T05:56:31.749Z,90.62
2018-11-04T05:59:35.685Z,90.20
2018-11-04T06:02:40.470Z,90.80
2018-11-04T06:05:44.344Z,90.66
2018-11-04T06:08:48.226Z,90.08
2018-11-04T06:11:52.099Z,90.53
2018-11-04T06:14:55.966Z,90.07
2018-11-04T06:18:00.048Z,90.25
2018-11-04T06:21:04.177Z,90.44
2018-11-04T06:24:08.044Z,90.38
2018-11-04T06:27:12.253Z,90.08
2018-11-04T06:30:16.138Z,89.92
2018-11-04T06:33:20.018Z,90.17
2018-11-04T06:36:23.889Z,89.98
2018-11-04T06:39:27.769Z,90.09
2018-11-04T06:42:31.654Z,89.97
2018-11-04T06:45:35.738Z,90.07
2018-11-04T06:48:39.892Z,90.18
2018-11-04T06:51:43.769Z,90.42
2018-11-04T06:54:47.719Z,90.23
2018-11-04T06:57:51.632Z,90.48
2018-11-04T07:00:55.510Z,90.46
2018-11-04T07:04:11.365Z,90.87
2018-11-04T07:07:15.361Z,90.42
2018-11-04T07:10:19.252Z,90.82
2018-11-04T07:13:23.328Z,90.71
2018-11-04T07:16:27.197Z,90.84
2018-11-04T07:19:31.103Z,90.69
2018-11-04T07:22:34.979Z,91.23
2018-11-04T07:25:38.990Z,91.19
2018-11-04T07:28:43.015Z,91.23
2018-11-04T07:31:46.906Z,91.50
2018-11-04T07:34:50.780Z,91.73
2018-11-04T07:37:54.769Z,91.61
2018-11-04T07:40:58.618Z,91.84
2018-11-04T07:44:02.845Z,91.63
2018-11-04T07:47:06.915Z,91.82
2018-11-04T07:50:13.261Z,92.18
2018-11-04T07:53:17.145Z,91.98
2018-11-04T07:56:21.351Z,92.35
2018-11-04T07:59:25.401Z,92.19
2018-11-04T08:02:29.286Z,92.50
2018-11-04T08:05:33.185Z,92.23
2018-11-04T08:08:37.074Z,91.87
2018-11-04T08:11:40.964Z,92.12
2018-11-04T08:14:45.154Z,92.56
2018-11-04T08:17:49.030Z,92.54
2018-11-04T08:20:52.905Z,92.54
2018-11-04T08:23:56.859Z,92.56
2018-11-04T08:27:00.722Z,92.50
2018-11-04T08:30:05.980Z,92.72
2018-11-04T08:33:09.853Z,92.58
2018-11-04T08:36:13.909Z,92.46
2018-11-04T08:39:17.782Z,92.40
2018-11-04T08:42:21.658Z,92.76
2018-11-04T08:45:26.057Z,93.05
2018-11-04T08:48:30.145Z,92.60
2018-11-04T08:51:34.278Z,92.93
2018-11-04T08:54:38.141Z,92.87
2018-11-04T08:57:42.042Z,92.85
2018-11-04T09:00:46.264Z,92.79
2018-11-04T09:03:50.138Z,92.96
2018-11-04T09:06:54.126Z,92.82
2018-11-04T09:09:57.985Z,92.50
2018-11-04T09:13:01.862Z,92.77
2018-11-04T09:16:06.334Z,93.25
2018-11-04T09:19:10.215Z,93.05
2018-11-04T09:22:14.347Z,92.83
2018-11-04T09:25:18.478Z,92.70
2018-11-04T09:28:22.361Z,93.11
2018-11-04T09:31:26.230Z,92.89
2018-11-04T09:34:30.368Z,93.38
2018-11-04T09:37:34.728Z,93.09
2018-11-04T09:40:38.613Z,93.24
2018-11-04T09:43:42.521Z,93.18
2018-11-04T09:46:46.390Z,92.63
2018-11-04T09:49:50.329Z,93.21
2018-11-04T09:52:54.350Z,93.66
2018-11-04T09:55:58.241Z,93.16
2018-11-04T09:59:02.647Z,93.01
2018-11-04T10:02:06.538Z,93.44
2018-11-04T10:05:11.242Z,93.12
2018-11-04T10:08:15.126Z,93.65
2018-11-04T10:11:19.007Z,93.00
2018-11-04T10:14:22.869Z,93.72
2018-11-04T10:17:26.766Z,93.51
2018-11-04T10:20:31.337Z,93.42
2018-11-04T10:23:35.070Z,93.63
2018-11-04T10:26:39.159Z,93.67
2018-11-04T10:29:43.245Z,93.17
2018-11-04T10:32:47.122Z,93.08
2018-11-04T10:35:51.002Z,92.99
2018-11-04T10:38:55.076Z,93.22
2018-11-04T10:41:58.965Z,93.27
2018-11-04T10:45:02.916Z,92.52
2018-11-04T10:48:06.802Z,93.08
2018-11-04T10:51:11.014Z,93.78
2018-11-04T10:54:15.102Z,93.95
2018-11-04T10:57:19.326Z,92.98
2018-11-04T11:00:28.872Z,92.78
2018-11-04T11:03:33.082Z,93.77
2018-11-04T11:06:36.985Z,93.54
2018-11-04T11:09:40.861Z,93.38
2018-11-04T11:12:44.759Z,93.50
2018-11-04T11:15:48.853Z,93.42
2018-11-04T11:18:52.740Z,93.74
2018-11-04T11:21:56.637Z,93.42
2018-11-04T11:25:00.579Z,93.62
2018-11-04T11:28:04.561Z,93.31
2018-11-04T11:31:08.554Z,93.67
2018-11-04T11:34:12.421Z,93.16
2018-11-04T11:37:16.304Z,93.36
2018-11-04T11:40:20.378Z,93.86
2018-11-04T11:43:24.478Z,93.74
2018-11-04T11:46:28.358Z,93.65
2018-11-04T11:49:32.258Z,92.25
2018-11-04T11:52:36.286Z,92.93
2018-11-04T11:55:42.053Z,92.85
2018-11-04T11:58:46.004Z,92.97
2018-11-04T12:01:50.042Z,92.43
2018-11-04T12:04:53.938Z,92.58
2018-11-04T12:07:57.839Z,92.57
2018-11-04T12:11:01.938Z,92.92
2018-11-04T12:14:05.814Z,93.23
2018-11-04T12:17:09.700Z,93.09
2018-11-04T12:20:13.934Z,92.25
2018-11-04T12:23:17.813Z,92.93
2018-11-04T12:26:22.028Z,92.85
2018-11-04T12:29:26.029Z,92.95
2018-11-04T12:32:29.909Z,92.81
2018-11-04T12:35:34.144Z,93.03
2018-11-04T12:38:38.217Z,92.77
2018-11-04T12:41:42.482Z,92.41
2018-11-04T12:44:46.375Z,92.63
2018-11-04T12:47:50.433Z,92.58
2018-11-04T12:50:54.513Z,92.27
2018-11-04T12:53:58.425Z,92.50
2018-11-04T12:57:02.323Z,92.25
2018-11-04T13:00:10.752Z,92.63
2018-11-04T13:03:14.641Z,92.61
2018-11-04T13:06:18.567Z,92.92
2018-11-04T13:09:22.449Z,92.21
2018-11-04T13:12:26.339Z,93.86
2018-11-04T13:15:30.572Z,93.39
2018-11-04T13:18:41.693Z,92.46
2018-11-04T13:21:45.571Z,92.29
2018-11-04T13:24:49.459Z,92.76
2018-11-04T13:27:53.331Z,92.97
2018-11-04T13:30:57.228Z,92.25
2018-11-04T13:34:01.106Z,92.19
2018-11-04T13:37:05.892Z,92.05
2018-11-04T13:40:10.921Z,92.33
2018-11-04T13:43:15.242Z,92.68
2018-11-04T13:46:19.242Z,92.62
2018-11-04T13:49:23.396Z,92.94
2018-11-04T13:52:27.424Z,91.91
2018-11-04T13:55:31.322Z,91.73
2018-11-04T13:58:35.249Z,91.50
2018-11-04T14:01:39.466Z,92.13
2018-11-04T14:04:43.366Z,91.87
2018-11-04T14:07:47.249Z,91.73
2018-11-04T14:10:51.138Z,91.53
2018-11-04T14:13:55.024Z,91.89
2018-11-04T14:16:58.909Z,91.31
2018-11-04T14:20:03.211Z,91.96
2018-11-04T14:23:07.073Z,91.45
2018-11-04T14:26:10.970Z,91.33
2018-11-04T14:29:14.854Z,90.89
2018-11-04T14:32:19.094Z,91.32
2018-11-04T14:35:22.990Z,91.09
2018-11-04T14:38:27.220Z,91.21
2018-11-04T14:41:31.103Z,91.41
2018-11-04T14:44:34.983Z,91.61
2018-11-04T14:47:39.633Z,91.94
2018-11-04T14:50:43.505Z,91.89
2018-11-04T14:53:47.412Z,91.36
2018-11-04T14:56:51.489Z,92.15
2018-11-04T14:59:55.433Z,92.32
2018-11-04T15:02:59.466Z,91.55
2018-11-04T15:06:03.338Z,91.97
2018-11-04T15:09:08.261Z,92.10
2018-11-04T15:12:12.145Z,92.22
2018-11-04T15:15:17.206Z,91.44
2018-11-04T15:18:21.098Z,91.66
2018-11-04T15:21:24.986Z,91.70
2018-11-04T15:24:28.866Z,91.47
2018-11-04T15:27:32.766Z,92.04
2018-11-04T15:30:36.645Z,91.40
2018-11-04T15:33:40.561Z,91.25
2018-11-04T15:36:44.774Z,91.30
2018-11-04T15:39:48.645Z,91.77
2018-11-04T15:42:52.551Z,91.66
2018-11-04T15:45:56.623Z,91.00
2018-11-04T15:49:01.096Z,92.20
2018-11-04T15:52:05.154Z,91.94
2018-11-04T15:55:09.371Z,91.68
2018-11-04T15:58:13.479Z,90.95
2018-11-04T16:01:18.117Z,91.39
2018-11-04T16:04:22.091Z,91.46
2018-11-04T16:07:26.106Z,91.59
2018-11-04T16:10:29.987Z,91.57
2018-11-04T16:13:34.210Z,91.11
2018-11-04T16:16:38.078Z,91.44
2018-11-04T16:19:41.990Z,91.35
2018-11-04T16:22:46.246Z,91.58
2018-11-04T16:25:50.138Z,91.37
2018-11-04T16:28:54.213Z,91.90
2018-11-04T16:31:59.072Z,92.21
2018-11-04T16:35:03.438Z,91.62
2018-11-04T16:38:07.333Z,91.67
2018-11-04T16:41:11.469Z,91.44
2018-11-04T16:44:15.518Z,91.05
2018-11-04T16:47:19.521Z,91.17
2018-11-04T16:50:23.407Z,91.62
2018-11-04T16:53:27.288Z,91.46
2018-11-04T16:56:31.381Z,91.32
2018-11-04T16:59:35.315Z,91.81
2018-11-04T17:02:39.404Z,90.97
2018-11-04T17:05:43.643Z,91.34
2018-11-04T17:08:47.910Z,91.99
2018-11-04T17:11:52.142Z,91.89
2018-11-04T17:14:56.027Z,91.65
2018-11-04T17:17:59.938Z,91.80
2018-11-04T17:21:04.254Z,91.83
2018-11-04T17:24:08.148Z,91.36
2018-11-04T17:27:12.241Z,92.01
2018-11-04T17:30:17.674Z,92.19
2018-11-04T17:33:21.645Z,91.98
2018-11-04T17:36:26.000Z,92.35
2018-11-04T17:39:30.055Z,91.58
2018-11-04T17:42:34.125Z,91.68
2018-11-04T17:45:38.006Z,92.14
2018-11-04T17:48:41.926Z,91.86
2018-11-04T17:51:46.141Z,91.04
2018-11-04T17:54:50.035Z,92.05
2018-11-04T17:57:54.033Z,92.09
2018-11-04T18:00:57.917Z,92.16
2018-11-04T18:04:01.913Z,91.59
2018-11-04T18:07:06.225Z,91.94
2018-11-04T18:10:11.182Z,91.85
2018-11-04T18:13:15.077Z,91.67
2018-11-04T18:16:18.973Z,91.38
2018-11-04T18:19:22.952Z,92.11
2018-11-04T18:22:26.934Z,91.70
2018-11-04T18:25:30.814Z,91.93
2018-11-04T18:28:34.714Z,91.54
2018-11-04T18:31:38.640Z,91.19
2018-11-04T18:34:42.519Z,91.20
2018-11-04T18:37:46.597Z,91.33
2018-11-04T18:40:50.505Z,91.61
2018-11-04T18:43:54.713Z,91.60
2018-11-04T18:46:58.674Z,92.15
2018-11-04T18:50:02.589Z,91.57
2018-11-04T18:53:06.691Z,91.55
2018-11-04T18:56:10.584Z,91.27
2018-11-04T18:59:14.609Z,91.68
2018-11-04T19:02:18.550Z,91.81
2018-11-04T19:05:22.441Z,92.44
2018-11-04T19:08:26.517Z,91.95
2018-11-04T19:11:30.622Z,92.01
2018-11-04T19:14:34.692Z,91.97
2018-11-04T19:17:38.635Z,91.86
2018-11-04T19:20:42.721Z,91.85
2018-11-04T19:23:46.636Z,91.90
2018-11-04T19:26:50.519Z,91.99
2018-11-04T19:29:54.490Z,92.02
2018-11-04T19:32:58.394Z,91.75
2018-11-04T19:36:02.614Z,91.82
2018-11-04T19:39:09.043Z,91.58
2018-11-04T19:42:12.986Z,92.11
2018-11-04T19:45:17.029Z,92.06
2018-11-04T19:48:21.252Z,92.20
2018-11-04T19:51:25.211Z,91.98
2018-11-04T19:54:29.299Z,91.92
2018-11-04T19:57:33.291Z,92.02
2018-11-04T20:00:37.191Z,91.90
2018-11-04T20:03:41.289Z,92.13
2018-11-04T20:06:45.174Z,91.89
2018-11-04T20:09:49.066Z,92.07
2018-11-04T20:12:58.516Z,92.34
2018-11-04T20:16:02.627Z,92.55
2018-11-04T20:19:12.367Z,92.00
2018-11-04T20:22:16.443Z,92.17
2018-11-04T20:25:25.698Z,91.98
2018-11-04T20:28:29.721Z,92.36
2018-11-04T20:31:38.928Z,92.06
2018-11-04T20:34:42.801Z,91.96
2018-11-04T20:37:46.686Z,92.58
2018-11-04T20:40:56.018Z,91.75
2018-11-04T20:44:01.109Z,92.60
2018-11-04T20:47:05.498Z,92.53
2018-11-04T20:50:15.283Z,92.44
2018-11-04T20:53:19.214Z,92.12
2018-11-04T20:56:28.582Z,92.37
2018-11-04T20:59:32.467Z,92.18
2018-11-04T21:02:36.531Z,92.23
2018-11-04T21:05:40.492Z,91.98
2018-11-04T21:08:44.382Z,91.96
2018-11-04T21:11:48.264Z,92.01
2018-11-04T21:14:52.173Z,92.35
2018-11-04T21:17:56.045Z,92.11
2018-11-04T21:20:59.913Z,92.12
2018-11-04T21:24:03.787Z,92.19
2018-11-04T21:27:08.049Z,91.92
2018-11-04T21:30:12.988Z,92.01
2018-11-04T21:33:16.857Z,92.59
2018-11-04T21:36:22.015Z,91.96
2018-11-04T21:39:26.343Z,92.46
2018-11-04T21:42:30.708Z,91.95
2018-11-04T21:45:34.654Z,92.44
2018-11-04T21:48:38.538Z,92.67
2018-11-04T21:51:42.418Z,91.99
2018-11-04T21:54:46.503Z,92.27
2018-11-04T21:57:50.557Z,92.10
2018-11-04T22:00:54.519Z,92.84
2018-11-04T22:03:59.073Z,92.26
2018-11-04T22:07:02.930Z,92.09
2018-11-04T22:10:09.362Z,92.66
2018-11-04T22:13:13.253Z,92.58
2018-11-04T22:16:17.114Z,92.11
2018-11-04T22:19:21.005Z,92.68
2018-11-04T22:22:24.891Z,92.21
2018-11-04T22:25:28.769Z,92.50
2018-11-04T22:28:32.652Z,92.89
2018-11-04T22:31:36.547Z,92.76
2018-11-04T22:34:40.430Z,92.31
2018-11-04T22:37:44.313Z,92.20
2018-11-04T22:40:48.194Z,92.39
2018-11-04T22:43:52.084Z,92.89
2018-11-04T22:46:56.142Z,92.12
2018-11-04T22:50:00.045Z,92.38
2018-11-04T22:53:04.167Z,92.59
2018-11-04T22:56:08.447Z,92.29
2018-11-04T22:59:12.504Z,92.52
2018-11-04T23:02:16.361Z,92.26
2018-11-04T23:05:25.678Z,92.35
2018-11-04T23:08:29.978Z,92.75
2018-11-04T23:11:33.864Z,91.98
2018-11-04T23:14:38.086Z,92.58
2018-11-04T23:17:42.213Z,92.12
2018-11-04T23:20:46.090Z,92.43
2018-11-04T23:23:50.302Z,92.85
2018-11-04T23:26:54.211Z,92.75
2018-11-04T23:29:58.314Z,92.48
2018-11-04T23:33:02.210Z,92.58
2018-11-04T23:36:06.517Z,92.57
2018-11-04T23:39:11.151Z,92.70
2018-11-04T23:42:15.046Z,92.69
2018-11-04T23:45:19.182Z,92.39
2018-11-04T23:48:23.282Z,92.40
2018-11-04T23:51:27.182Z,92.69
2018-11-04T23:54:31.079Z,92.85
2018-11-04T23:57:34.970Z,92.23
